sensor_id;sensor_type;location;lat;lon;timestamp;temperature;humidity
3996;DHT22;2012;49.794;9.722;2023-02-01T00:01:06;5.00;99.90
3996;DHT22;2012;49.794;9.722;2023-02-01T00:03:33;5.00;99.90
3996;DHT22;2012;49.794;9.722;2023-02-01T00:06:00;5.00;99.90
3996;DHT22;2012;49.794;9.722;2023-02-01T00:08:27;5.00;99.90
3996;DHT22;2012;49.794;9.722;2023-02-01T00:11:03;5.00;99.90
3996;DHT22;2012;49.794;9.722;2023-02-01T00:13:35;5.00;99.90
3996;DHT22;2012;49.794;9.722;2023-02-01T00:18:31;5.00;99.90
3996;DHT22;2012;49.794;9.722;2023-02-01T00:20:58;5.00;99.90
3996;DHT22;2012;49.794;9.722;2023-02-01T00:23:25;5.00;99.90
3996;DHT22;2012;49.794;9.722;2023-02-01T00:25:52;5.00;99.90
3996;DHT22;2012;49.794;9.722;2023-02-01T00:28:19;5.00;99.90
3996;DHT22;2012;49.794;9.722;2023-02-01T00:30:46;5.00;99.90
3996;DHT22;2012;49.794;9.722;2023-02-01T00:33:12;5.10;99.90
3996;DHT22;2012;49.794;9.722;2023-02-01T00:35:39;5.10;99.90
3996;DHT22;2012;49.794;9.722;2023-02-01T00:38:06;5.10;99.90
3996;DHT22;2012;49.794;9.722;2023-02-01T00:40:32;5.10;99.90
3996;DHT22;2012;49.794;9.722;2023-02-01T00:42:59;5.10;99.90
3996;DHT22;2012;49.794;9.722;2023-02-01T00:45:26;5.10;99.90
3996;DHT22;2012;49.794;9.722;2023-02-01T00:47:53;5.10;99.90
3996;DHT22;2012;49.794;9.722;2023-02-01T00:50:19;5.10;99.90
3996;DHT22;2012;49.794;9.722;2023-02-01T00:52:47;5.10;99.90
3996;DHT22;2012;49.794;9.722;2023-02-01T00:55:13;5.10;99.90
3996;DHT22;2012;49.794;9.722;2023-02-01T00:57:40;5.10;99.90
3996;DHT22;2012;49.794;9.722;2023-02-01T01:00:07;5.20;99.90
3996;DHT22;2012;49.794;9.722;2023-02-01T01:02:34;5.20;99.90
3996;DHT22;2012;49.794;9.722;2023-02-01T01:05:01;5.20;99.90
3996;DHT22;2012;49.794;9.722;2023-02-01T01:07:28;5.20;99.90
3996;DHT22;2012;49.794;9.722;2023-02-01T01:09:55;5.20;99.90
3996;DHT22;2012;49.794;9.722;2023-02-01T01:12:21;5.20;99.90
3996;DHT22;2012;49.794;9.722;2023-02-01T01:14:48;5.20;99.90
3996;DHT22;2012;49.794;9.722;2023-02-01T01:17:16;5.30;99.90
3996;DHT22;2012;49.794;9.722;2023-02-01T01:19:43;5.30;99.90
3996;DHT22;2012;49.794;9.722;2023-02-01T01:22:09;5.20;99.90
3996;DHT22;2012;49.794;9.722;2023-02-01T01:24:36;5.20;99.90
3996;DHT22;2012;49.794;9.722;2023-02-01T01:27:03;5.20;99.90
3996;DHT22;2012;49.794;9.722;2023-02-01T01:29:29;5.30;99.90
3996;DHT22;2012;49.794;9.722;2023-02-01T01:31:56;5.30;99.90
3996;DHT22;2012;49.794;9.722;2023-02-01T01:34:23;5.30;99.90
3996;DHT22;2012;49.794;9.722;2023-02-01T01:36:50;5.30;99.90
3996;DHT22;2012;49.794;9.722;2023-02-01T01:39:16;5.20;99.90
3996;DHT22;2012;49.794;9.722;2023-02-01T01:41:43;5.30;99.90
3996;DHT22;2012;49.794;9.722;2023-02-01T01:47:15;5.30;99.90
3996;DHT22;2012;49.794;9.722;2023-02-01T01:49:42;5.30;99.90
3996;DHT22;2012;49.794;9.722;2023-02-01T01:52:09;5.20;99.90
3996;DHT22;2012;49.794;9.722;2023-02-01T01:54:43;5.20;99.90
3996;DHT22;2012;49.794;9.722;2023-02-01T01:57:17;5.20;99.90
3996;DHT22;2012;49.794;9.722;2023-02-01T01:59:50;5.20;99.90
3996;DHT22;2012;49.794;9.722;2023-02-01T02:02:19;5.20;99.90
3996;DHT22;2012;49.794;9.722;2023-02-01T02:04:47;5.20;99.90
3996;DHT22;2012;49.794;9.722;2023-02-01T02:07:25;5.20;99.90
3996;DHT22;2012;49.794;9.722;2023-02-01T02:09:52;5.20;99.90
3996;DHT22;2012;49.794;9.722;2023-02-01T02:12:26;5.20;99.90
3996;DHT22;2012;49.794;9.722;2023-02-01T02:14:53;5.20;99.90
3996;DHT22;2012;49.794;9.722;2023-02-01T02:17:26;5.10;99.90
3996;DHT22;2012;49.794;9.722;2023-02-01T02:25:47;5.10;99.90
3996;DHT22;2012;49.794;9.722;2023-02-01T02:31:07;5.10;99.90
3996;DHT22;2012;49.794;9.722;2023-02-01T02:36:39;5.20;99.90
3996;DHT22;2012;49.794;9.722;2023-02-01T02:39:16;5.10;99.90
3996;DHT22;2012;49.794;9.722;2023-02-01T02:41:55;5.20;99.90
3996;DHT22;2012;49.794;9.722;2023-02-01T02:44:50;5.20;99.90
3996;DHT22;2012;49.794;9.722;2023-02-01T02:47:54;5.10;99.90
3996;DHT22;2012;49.794;9.722;2023-02-01T02:50:33;5.10;99.90
3996;DHT22;2012;49.794;9.722;2023-02-01T02:53:32;5.00;99.90
3996;DHT22;2012;49.794;9.722;2023-02-01T02:56:21;5.10;99.90
3996;DHT22;2012;49.794;9.722;2023-02-01T02:59:08;5.00;99.90
3996;DHT22;2012;49.794;9.722;2023-02-01T03:01:54;5.00;99.90
3996;DHT22;2012;49.794;9.722;2023-02-01T03:04:39;5.00;99.90
3996;DHT22;2012;49.794;9.722;2023-02-01T03:08:03;5.00;99.90
3996;DHT22;2012;49.794;9.722;2023-02-01T03:10:09;5.00;99.90
3996;DHT22;2012;49.794;9.722;2023-02-01T03:12:39;5.00;99.90
3996;DHT22;2012;49.794;9.722;2023-02-01T03:15:30;4.90;99.90
3996;DHT22;2012;49.794;9.722;2023-02-01T03:18:01;5.00;99.90
3996;DHT22;2012;49.794;9.722;2023-02-01T03:20:31;5.00;99.90
3996;DHT22;2012;49.794;9.722;2023-02-01T03:22:59;5.00;99.90
3996;DHT22;2012;49.794;9.722;2023-02-01T03:25:31;5.00;99.90
3996;DHT22;2012;49.794;9.722;2023-02-01T03:28:08;5.00;99.90
3996;DHT22;2012;49.794;9.722;2023-02-01T03:30:42;5.00;99.90
3996;DHT22;2012;49.794;9.722;2023-02-01T03:33:14;5.00;99.90
3996;DHT22;2012;49.794;9.722;2023-02-01T03:38:27;5.00;99.90
3996;DHT22;2012;49.794;9.722;2023-02-01T03:41:12;4.90;99.90
3996;DHT22;2012;49.794;9.722;2023-02-01T03:44:09;5.00;99.90
3996;DHT22;2012;49.794;9.722;2023-02-01T03:46:56;5.00;99.90
3996;DHT22;2012;49.794;9.722;2023-02-01T03:49:28;5.00;99.90
3996;DHT22;2012;49.794;9.722;2023-02-01T03:51:58;4.90;99.90
3996;DHT22;2012;49.794;9.722;2023-02-01T03:54:27;4.90;99.90
3996;DHT22;2012;49.794;9.722;2023-02-01T03:56:57;4.80;99.90
3996;DHT22;2012;49.794;9.722;2023-02-01T03:59:26;4.80;99.90
3996;DHT22;2012;49.794;9.722;2023-02-01T04:01:52;4.80;99.90
3996;DHT22;2012;49.794;9.722;2023-02-01T04:04:19;4.70;99.90
3996;DHT22;2012;49.794;9.722;2023-02-01T04:06:50;4.70;99.90
3996;DHT22;2012;49.794;9.722;2023-02-01T04:09:17;4.60;99.90
3996;DHT22;2012;49.794;9.722;2023-02-01T04:11:44;4.60;99.90
3996;DHT22;2012;49.794;9.722;2023-02-01T04:14:10;4.60;99.90
3996;DHT22;2012;49.794;9.722;2023-02-01T04:16:37;4.60;99.90
3996;DHT22;2012;49.794;9.722;2023-02-01T04:19:04;4.60;99.90
3996;DHT22;2012;49.794;9.722;2023-02-01T04:21:31;4.60;99.90
3996;DHT22;2012;49.794;9.722;2023-02-01T04:23:57;4.50;99.90
3996;DHT22;2012;49.794;9.722;2023-02-01T04:26:24;4.60;99.90
3996;DHT22;2012;49.794;9.722;2023-02-01T04:28:51;4.50;99.90
3996;DHT22;2012;49.794;9.722;2023-02-01T04:31:19;4.50;99.90
3996;DHT22;2012;49.794;9.722;2023-02-01T04:33:53;4.50;99.90
3996;DHT22;2012;49.794;9.722;2023-02-01T04:36:23;4.50;99.90
3996;DHT22;2012;49.794;9.722;2023-02-01T04:38:50;4.50;99.90
3996;DHT22;2012;49.794;9.722;2023-02-01T04:41:17;4.50;99.90
3996;DHT22;2012;49.794;9.722;2023-02-01T04:43:46;4.50;99.90
3996;DHT22;2012;49.794;9.722;2023-02-01T04:46:13;4.50;99.90
3996;DHT22;2012;49.794;9.722;2023-02-01T04:48:40;4.50;99.90
3996;DHT22;2012;49.794;9.722;2023-02-01T04:51:09;4.50;99.90
3996;DHT22;2012;49.794;9.722;2023-02-01T04:53:36;4.60;99.90
3996;DHT22;2012;49.794;9.722;2023-02-01T04:56:03;4.60;99.90
3996;DHT22;2012;49.794;9.722;2023-02-01T04:58:30;4.50;99.90
3996;DHT22;2012;49.794;9.722;2023-02-01T05:00:57;4.50;99.90
3996;DHT22;2012;49.794;9.722;2023-02-01T05:03:24;4.50;99.90
3996;DHT22;2012;49.794;9.722;2023-02-01T05:05:50;4.50;99.90
3996;DHT22;2012;49.794;9.722;2023-02-01T05:08:19;4.50;99.90
3996;DHT22;2012;49.794;9.722;2023-02-01T05:10:48;4.50;99.90
3996;DHT22;2012;49.794;9.722;2023-02-01T05:13:15;4.40;99.90
3996;DHT22;2012;49.794;9.722;2023-02-01T05:16:00;4.40;99.90
3996;DHT22;2012;49.794;9.722;2023-02-01T05:18:27;4.50;99.90
3996;DHT22;2012;49.794;9.722;2023-02-01T05:20:54;4.40;99.90
3996;DHT22;2012;49.794;9.722;2023-02-01T05:23:21;4.40;99.90
3996;DHT22;2012;49.794;9.722;2023-02-01T05:25:48;4.50;99.90
3996;DHT22;2012;49.794;9.722;2023-02-01T05:28:14;4.50;99.90
3996;DHT22;2012;49.794;9.722;2023-02-01T05:30:41;4.50;99.90
3996;DHT22;2012;49.794;9.722;2023-02-01T05:33:08;4.50;99.90
3996;DHT22;2012;49.794;9.722;2023-02-01T05:35:34;4.50;99.90
3996;DHT22;2012;49.794;9.722;2023-02-01T05:38:01;4.50;99.90
3996;DHT22;2012;49.794;9.722;2023-02-01T05:40:28;4.50;99.90
3996;DHT22;2012;49.794;9.722;2023-02-01T05:42:55;4.60;99.90
3996;DHT22;2012;49.794;9.722;2023-02-01T05:45:21;4.50;99.90
3996;DHT22;2012;49.794;9.722;2023-02-01T05:47:48;4.50;99.90
3996;DHT22;2012;49.794;9.722;2023-02-01T05:50:16;4.60;99.90
3996;DHT22;2012;49.794;9.722;2023-02-01T05:52:43;4.60;99.90
3996;DHT22;2012;49.794;9.722;2023-02-01T05:55:09;4.60;99.90
3996;DHT22;2012;49.794;9.722;2023-02-01T05:57:36;4.60;99.90
3996;DHT22;2012;49.794;9.722;2023-02-01T06:00:04;4.60;99.90
3996;DHT22;2012;49.794;9.722;2023-02-01T06:02:30;4.60;99.90
3996;DHT22;2012;49.794;9.722;2023-02-01T06:04:57;4.60;99.90
3996;DHT22;2012;49.794;9.722;2023-02-01T06:07:24;4.70;99.90
3996;DHT22;2012;49.794;9.722;2023-02-01T06:09:53;4.60;99.90
3996;DHT22;2012;49.794;9.722;2023-02-01T06:12:20;4.70;99.90
3996;DHT22;2012;49.794;9.722;2023-02-01T06:14:46;4.70;99.90
3996;DHT22;2012;49.794;9.722;2023-02-01T06:17:13;4.70;99.90
3996;DHT22;2012;49.794;9.722;2023-02-01T06:19:40;4.90;99.90
3996;DHT22;2012;49.794;9.722;2023-02-01T06:22:07;5.20;99.90
3996;DHT22;2012;49.794;9.722;2023-02-01T06:24:33;5.40;99.90
3996;DHT22;2012;49.794;9.722;2023-02-01T06:27:00;5.50;99.90
3996;DHT22;2012;49.794;9.722;2023-02-01T06:29:27;6.00;99.90
3996;DHT22;2012;49.794;9.722;2023-02-01T06:31:53;6.10;99.90
3996;DHT22;2012;49.794;9.722;2023-02-01T06:34:20;6.10;99.90
3996;DHT22;2012;49.794;9.722;2023-02-01T06:36:48;5.80;99.90
3996;DHT22;2012;49.794;9.722;2023-02-01T06:39:15;5.60;99.90
3996;DHT22;2012;49.794;9.722;2023-02-01T06:41:46;6.00;99.90
3996;DHT22;2012;49.794;9.722;2023-02-01T06:44:12;5.80;99.90
3996;DHT22;2012;49.794;9.722;2023-02-01T06:46:39;5.40;99.90
3996;DHT22;2012;49.794;9.722;2023-02-01T06:49:06;5.20;99.90
3996;DHT22;2012;49.794;9.722;2023-02-01T06:51:34;5.10;99.90
3996;DHT22;2012;49.794;9.722;2023-02-01T06:54:01;5.10;99.90
3996;DHT22;2012;49.794;9.722;2023-02-01T06:56:27;5.40;99.90
3996;DHT22;2012;49.794;9.722;2023-02-01T06:58:54;5.20;99.90
3996;DHT22;2012;49.794;9.722;2023-02-01T07:01:21;5.10;99.90
3996;DHT22;2012;49.794;9.722;2023-02-01T07:03:49;5.00;99.90
3996;DHT22;2012;49.794;9.722;2023-02-01T07:06:18;5.00;99.90
3996;DHT22;2012;49.794;9.722;2023-02-01T07:08:44;5.00;99.90
3996;DHT22;2012;49.794;9.722;2023-02-01T07:11:13;4.90;99.90
3996;DHT22;2012;49.794;9.722;2023-02-01T07:13:40;4.90;99.90
3996;DHT22;2012;49.794;9.722;2023-02-01T07:16:11;4.90;99.90
3996;DHT22;2012;49.794;9.722;2023-02-01T07:18:38;5.00;99.90
3996;DHT22;2012;49.794;9.722;2023-02-01T07:21:05;5.00;99.90
3996;DHT22;2012;49.794;9.722;2023-02-01T07:23:32;5.00;99.90
3996;DHT22;2012;49.794;9.722;2023-02-01T07:26:01;5.10;99.90
3996;DHT22;2012;49.794;9.722;2023-02-01T07:28:32;5.10;99.90
3996;DHT22;2012;49.794;9.722;2023-02-01T07:31:08;5.00;99.90
3996;DHT22;2012;49.794;9.722;2023-02-01T07:33:35;5.10;99.90
3996;DHT22;2012;49.794;9.722;2023-02-01T07:36:04;5.10;99.90
3996;DHT22;2012;49.794;9.722;2023-02-01T07:38:32;5.10;99.90
3996;DHT22;2012;49.794;9.722;2023-02-01T07:41:00;5.10;99.90
3996;DHT22;2012;49.794;9.722;2023-02-01T07:43:28;5.20;99.90
3996;DHT22;2012;49.794;9.722;2023-02-01T07:45:55;5.30;99.90
3996;DHT22;2012;49.794;9.722;2023-02-01T07:48:23;5.30;99.90
3996;DHT22;2012;49.794;9.722;2023-02-01T07:50:58;5.30;99.90
3996;DHT22;2012;49.794;9.722;2023-02-01T07:53:26;5.20;99.90
3996;DHT22;2012;49.794;9.722;2023-02-01T07:55:53;5.30;99.90
3996;DHT22;2012;49.794;9.722;2023-02-01T07:58:19;5.30;99.90
3996;DHT22;2012;49.794;9.722;2023-02-01T08:00:46;5.30;99.90
3996;DHT22;2012;49.794;9.722;2023-02-01T08:03:31;5.20;99.90
3996;DHT22;2012;49.794;9.722;2023-02-01T08:05:58;5.20;99.90
3996;DHT22;2012;49.794;9.722;2023-02-01T08:08:25;5.30;99.90
3996;DHT22;2012;49.794;9.722;2023-02-01T08:10:57;5.30;99.90
3996;DHT22;2012;49.794;9.722;2023-02-01T08:13:24;5.30;99.90
3996;DHT22;2012;49.794;9.722;2023-02-01T08:15:51;5.30;99.90
3996;DHT22;2012;49.794;9.722;2023-02-01T08:18:18;5.30;99.90
3996;DHT22;2012;49.794;9.722;2023-02-01T08:20:45;5.30;99.90
3996;DHT22;2012;49.794;9.722;2023-02-01T08:23:14;5.40;99.90
3996;DHT22;2012;49.794;9.722;2023-02-01T08:25:41;5.40;99.90
3996;DHT22;2012;49.794;9.722;2023-02-01T08:28:08;5.40;99.90
3996;DHT22;2012;49.794;9.722;2023-02-01T08:30:38;5.40;99.90
3996;DHT22;2012;49.794;9.722;2023-02-01T08:33:06;5.70;99.90
3996;DHT22;2012;49.794;9.722;2023-02-01T08:35:36;6.90;99.90
3996;DHT22;2012;49.794;9.722;2023-02-01T08:38:09;7.00;99.90
3996;DHT22;2012;49.794;9.722;2023-02-01T08:40:36;7.30;99.90
3996;DHT22;2012;49.794;9.722;2023-02-01T08:43:03;6.10;99.90
3996;DHT22;2012;49.794;9.722;2023-02-01T08:45:30;5.80;99.90
3996;DHT22;2012;49.794;9.722;2023-02-01T08:47:57;5.70;99.90
3996;DHT22;2012;49.794;9.722;2023-02-01T08:50:24;5.60;99.90
3996;DHT22;2012;49.794;9.722;2023-02-01T08:52:53;5.60;99.90
3996;DHT22;2012;49.794;9.722;2023-02-01T08:55:20;5.60;99.90
3996;DHT22;2012;49.794;9.722;2023-02-01T08:57:47;5.60;99.90
3996;DHT22;2012;49.794;9.722;2023-02-01T09:00:17;5.60;99.90
3996;DHT22;2012;49.794;9.722;2023-02-01T09:02:44;5.70;99.90
3996;DHT22;2012;49.794;9.722;2023-02-01T09:05:11;5.70;99.90
3996;DHT22;2012;49.794;9.722;2023-02-01T09:07:38;5.80;99.90
3996;DHT22;2012;49.794;9.722;2023-02-01T09:10:05;5.80;99.90
3996;DHT22;2012;49.794;9.722;2023-02-01T09:12:34;5.90;99.90
3996;DHT22;2012;49.794;9.722;2023-02-01T09:15:01;5.90;99.90
3996;DHT22;2012;49.794;9.722;2023-02-01T09:17:28;5.90;99.90
3996;DHT22;2012;49.794;9.722;2023-02-01T09:19:56;5.90;99.90
3996;DHT22;2012;49.794;9.722;2023-02-01T09:22:22;5.90;99.90
3996;DHT22;2012;49.794;9.722;2023-02-01T09:24:49;5.90;99.90
3996;DHT22;2012;49.794;9.722;2023-02-01T09:27:16;5.90;99.90
3996;DHT22;2012;49.794;9.722;2023-02-01T09:29:43;6.90;99.90
3996;DHT22;2012;49.794;9.722;2023-02-01T09:32:10;7.50;99.90
3996;DHT22;2012;49.794;9.722;2023-02-01T09:34:37;7.20;99.90
3996;DHT22;2012;49.794;9.722;2023-02-01T09:37:04;6.80;99.90
3996;DHT22;2012;49.794;9.722;2023-02-01T09:39:30;6.40;99.90
3996;DHT22;2012;49.794;9.722;2023-02-01T09:47:30;6.20;99.90
3996;DHT22;2012;49.794;9.722;2023-02-01T09:50:05;6.10;99.90
3996;DHT22;2012;49.794;9.722;2023-02-01T09:53:02;6.10;99.90
3996;DHT22;2012;49.794;9.722;2023-02-01T09:55:45;6.10;99.90
3996;DHT22;2012;49.794;9.722;2023-02-01T09:58:14;6.10;99.90
3996;DHT22;2012;49.794;9.722;2023-02-01T10:00:53;6.00;99.90
3996;DHT22;2012;49.794;9.722;2023-02-01T10:03:24;6.10;99.90
3996;DHT22;2012;49.794;9.722;2023-02-01T10:06:23;6.10;99.90
3996;DHT22;2012;49.794;9.722;2023-02-01T10:09:13;6.10;99.90
3996;DHT22;2012;49.794;9.722;2023-02-01T10:20:12;6.10;99.90
3996;DHT22;2012;49.794;9.722;2023-02-01T10:22:49;6.10;99.90
3996;DHT22;2012;49.794;9.722;2023-02-01T10:28:15;6.10;99.90
3996;DHT22;2012;49.794;9.722;2023-02-01T10:30:44;6.10;99.90
3996;DHT22;2012;49.794;9.722;2023-02-01T10:33:19;6.10;99.90
3996;DHT22;2012;49.794;9.722;2023-02-01T10:35:53;6.20;99.90
3996;DHT22;2012;49.794;9.722;2023-02-01T10:38:25;6.20;99.90
3996;DHT22;2012;49.794;9.722;2023-02-01T10:40:56;6.10;99.90
3996;DHT22;2012;49.794;9.722;2023-02-01T10:43:26;6.20;99.90
3996;DHT22;2012;49.794;9.722;2023-02-01T10:45:53;6.20;99.90
3996;DHT22;2012;49.794;9.722;2023-02-01T10:48:20;6.10;99.90
3996;DHT22;2012;49.794;9.722;2023-02-01T10:50:55;6.10;99.90
3996;DHT22;2012;49.794;9.722;2023-02-01T10:53:33;6.10;99.90
3996;DHT22;2012;49.794;9.722;2023-02-01T10:56:08;6.10;99.90
3996;DHT22;2012;49.794;9.722;2023-02-01T10:58:36;6.10;99.90
3996;DHT22;2012;49.794;9.722;2023-02-01T11:01:21;6.10;99.90
3996;DHT22;2012;49.794;9.722;2023-02-01T11:06:26;6.10;99.90
3996;DHT22;2012;49.794;9.722;2023-02-01T11:08:59;6.10;99.90
3996;DHT22;2012;49.794;9.722;2023-02-01T11:11:27;6.10;99.90
3996;DHT22;2012;49.794;9.722;2023-02-01T11:14:14;6.20;99.90
3996;DHT22;2012;49.794;9.722;2023-02-01T11:16:47;6.30;99.90
3996;DHT22;2012;49.794;9.722;2023-02-01T11:19:17;6.60;99.90
3996;DHT22;2012;49.794;9.722;2023-02-01T11:21:44;6.60;99.90
3996;DHT22;2012;49.794;9.722;2023-02-01T11:24:23;6.60;99.90
3996;DHT22;2012;49.794;9.722;2023-02-01T11:26:53;6.50;99.90
3996;DHT22;2012;49.794;9.722;2023-02-01T11:29:21;6.40;99.90
3996;DHT22;2012;49.794;9.722;2023-02-01T11:31:57;6.50;99.90
3996;DHT22;2012;49.794;9.722;2023-02-01T11:34:36;6.40;99.90
3996;DHT22;2012;49.794;9.722;2023-02-01T11:37:04;6.40;99.90
3996;DHT22;2012;49.794;9.722;2023-02-01T11:39:33;6.40;99.90
3996;DHT22;2012;49.794;9.722;2023-02-01T11:42:13;6.40;99.90
3996;DHT22;2012;49.794;9.722;2023-02-01T11:44:42;6.40;99.90
3996;DHT22;2012;49.794;9.722;2023-02-01T11:47:25;6.40;99.90
3996;DHT22;2012;49.794;9.722;2023-02-01T11:49:57;6.40;99.90
3996;DHT22;2012;49.794;9.722;2023-02-01T11:52:48;6.50;99.90
3996;DHT22;2012;49.794;9.722;2023-02-01T12:18:25;6.30;99.90
3996;DHT22;2012;49.794;9.722;2023-02-01T12:29:26;6.40;99.90
3996;DHT22;2012;49.794;9.722;2023-02-01T12:32:11;6.40;99.90
3996;DHT22;2012;49.794;9.722;2023-02-01T12:35:02;6.40;99.90
3996;DHT22;2012;49.794;9.722;2023-02-01T12:40:53;6.40;99.90
3996;DHT22;2012;49.794;9.722;2023-02-01T12:43:33;6.40;99.90
3996;DHT22;2012;49.794;9.722;2023-02-01T12:46:14;6.40;99.90
3996;DHT22;2012;49.794;9.722;2023-02-01T12:49:02;6.40;99.90
3996;DHT22;2012;49.794;9.722;2023-02-01T12:51:35;6.50;99.90
3996;DHT22;2012;49.794;9.722;2023-02-01T12:54:22;6.40;99.90
3996;DHT22;2012;49.794;9.722;2023-02-01T12:57:01;6.40;99.90
3996;DHT22;2012;49.794;9.722;2023-02-01T12:59:55;6.40;99.90
3996;DHT22;2012;49.794;9.722;2023-02-01T13:05:27;6.40;99.90
3996;DHT22;2012;49.794;9.722;2023-02-01T13:08:03;6.40;99.90
3996;DHT22;2012;49.794;9.722;2023-02-01T13:10:38;6.40;99.90
3996;DHT22;2012;49.794;9.722;2023-02-01T13:13:19;6.40;99.90
3996;DHT22;2012;49.794;9.722;2023-02-01T13:15:54;6.40;99.90
3996;DHT22;2012;49.794;9.722;2023-02-01T13:18:25;6.40;99.90
3996;DHT22;2012;49.794;9.722;2023-02-01T13:21:07;6.40;99.90
3996;DHT22;2012;49.794;9.722;2023-02-01T13:23:37;6.40;99.90
3996;DHT22;2012;49.794;9.722;2023-02-01T13:26:05;6.40;99.90
3996;DHT22;2012;49.794;9.722;2023-02-01T13:28:42;6.40;99.90
3996;DHT22;2012;49.794;9.722;2023-02-01T13:31:47;6.40;99.90
3996;DHT22;2012;49.794;9.722;2023-02-01T13:37:59;6.40;99.90
3996;DHT22;2012;49.794;9.722;2023-02-01T13:43:12;6.40;99.90
3996;DHT22;2012;49.794;9.722;2023-02-01T13:45:48;6.40;99.90
3996;DHT22;2012;49.794;9.722;2023-02-01T13:48:26;6.40;99.90
3996;DHT22;2012;49.794;9.722;2023-02-01T13:50:59;6.40;99.90
3996;DHT22;2012;49.794;9.722;2023-02-01T13:53:32;6.40;99.90
3996;DHT22;2012;49.794;9.722;2023-02-01T13:56:11;6.40;99.90
3996;DHT22;2012;49.794;9.722;2023-02-01T13:58:41;6.40;99.90
3996;DHT22;2012;49.794;9.722;2023-02-01T14:03:58;6.40;99.90
3996;DHT22;2012;49.794;9.722;2023-02-01T14:11:41;6.40;99.90
3996;DHT22;2012;49.794;9.722;2023-02-01T14:19:37;6.50;99.90
3996;DHT22;2012;49.794;9.722;2023-02-01T14:24:56;6.50;99.90
3996;DHT22;2012;49.794;9.722;2023-02-01T14:27:29;6.50;99.90
3996;DHT22;2012;49.794;9.722;2023-02-01T14:29:59;6.50;99.90
3996;DHT22;2012;49.794;9.722;2023-02-01T14:32:39;6.40;99.90
3996;DHT22;2012;49.794;9.722;2023-02-01T14:35:21;6.40;99.90
3996;DHT22;2012;49.794;9.722;2023-02-01T14:37:53;6.50;99.90
3996;DHT22;2012;49.794;9.722;2023-02-01T14:40:26;6.50;99.90
3996;DHT22;2012;49.794;9.722;2023-02-01T14:42:54;6.50;99.90
3996;DHT22;2012;49.794;9.722;2023-02-01T14:47:54;6.60;99.90
3996;DHT22;2012;49.794;9.722;2023-02-01T15:01:31;6.50;99.90
3996;DHT22;2012;49.794;9.722;2023-02-01T15:04:15;6.50;99.90
3996;DHT22;2012;49.794;9.722;2023-02-01T15:06:57;6.50;99.90
3996;DHT22;2012;49.794;9.722;2023-02-01T15:12:14;6.50;99.90
3996;DHT22;2012;49.794;9.722;2023-02-01T15:14:47;6.50;99.90
3996;DHT22;2012;49.794;9.722;2023-02-01T15:17:23;6.50;99.90
3996;DHT22;2012;49.794;9.722;2023-02-01T15:19:54;6.50;99.90
3996;DHT22;2012;49.794;9.722;2023-02-01T15:22:22;6.50;99.90
3996;DHT22;2012;49.794;9.722;2023-02-01T15:24:53;6.60;99.90
3996;DHT22;2012;49.794;9.722;2023-02-01T15:27:20;6.60;99.90
3996;DHT22;2012;49.794;9.722;2023-02-01T15:29:47;6.60;99.90
3996;DHT22;2012;49.794;9.722;2023-02-01T15:32:32;6.50;99.90
3996;DHT22;2012;49.794;9.722;2023-02-01T15:35:00;6.60;99.90
3996;DHT22;2012;49.794;9.722;2023-02-01T15:37:28;6.60;99.90
3996;DHT22;2012;49.794;9.722;2023-02-01T15:42:53;6.60;99.90
3996;DHT22;2012;49.794;9.722;2023-02-01T15:45:24;6.60;99.90
3996;DHT22;2012;49.794;9.722;2023-02-01T15:47:54;6.50;99.90
3996;DHT22;2012;49.794;9.722;2023-02-01T15:50:22;6.60;99.90
3996;DHT22;2012;49.794;9.722;2023-02-01T15:52:53;6.50;99.90
3996;DHT22;2012;49.794;9.722;2023-02-01T15:55:30;6.50;99.90
3996;DHT22;2012;49.794;9.722;2023-02-01T15:57:59;6.50;99.90
3996;DHT22;2012;49.794;9.722;2023-02-01T16:00:31;6.50;99.90
3996;DHT22;2012;49.794;9.722;2023-02-01T16:03:05;6.50;99.90
3996;DHT22;2012;49.794;9.722;2023-02-01T16:05:58;6.50;99.90
3996;DHT22;2012;49.794;9.722;2023-02-01T16:08:27;6.40;99.90
3996;DHT22;2012;49.794;9.722;2023-02-01T16:13:35;6.40;99.90
3996;DHT22;2012;49.794;9.722;2023-02-01T16:16:02;6.40;99.90
3996;DHT22;2012;49.794;9.722;2023-02-01T16:18:34;6.50;99.90
3996;DHT22;2012;49.794;9.722;2023-02-01T16:21:01;6.40;99.90
3996;DHT22;2012;49.794;9.722;2023-02-01T16:23:28;6.40;99.90
3996;DHT22;2012;49.794;9.722;2023-02-01T16:25:57;6.40;99.90
3996;DHT22;2012;49.794;9.722;2023-02-01T16:28:24;6.40;99.90
3996;DHT22;2012;49.794;9.722;2023-02-01T16:30:51;6.40;99.90
3996;DHT22;2012;49.794;9.722;2023-02-01T16:33:20;6.40;99.90
3996;DHT22;2012;49.794;9.722;2023-02-01T16:35:49;6.40;99.90
3996;DHT22;2012;49.794;9.722;2023-02-01T16:38:18;6.40;99.90
3996;DHT22;2012;49.794;9.722;2023-02-01T16:40:48;6.40;99.90
3996;DHT22;2012;49.794;9.722;2023-02-01T16:43:20;6.40;99.90
3996;DHT22;2012;49.794;9.722;2023-02-01T16:45:49;6.40;99.90
3996;DHT22;2012;49.794;9.722;2023-02-01T16:48:20;6.40;99.90
3996;DHT22;2012;49.794;9.722;2023-02-01T16:50:51;6.40;99.90
3996;DHT22;2012;49.794;9.722;2023-02-01T16:53:19;6.40;99.90
3996;DHT22;2012;49.794;9.722;2023-02-01T16:55:46;6.40;99.90
3996;DHT22;2012;49.794;9.722;2023-02-01T16:58:16;6.30;99.90
3996;DHT22;2012;49.794;9.722;2023-02-01T17:00:44;6.30;99.90
3996;DHT22;2012;49.794;9.722;2023-02-01T17:03:12;6.30;99.90
3996;DHT22;2012;49.794;9.722;2023-02-01T17:05:51;6.30;99.90
3996;DHT22;2012;49.794;9.722;2023-02-01T17:08:26;6.30;99.90
3996;DHT22;2012;49.794;9.722;2023-02-01T17:10:53;6.30;99.90
3996;DHT22;2012;49.794;9.722;2023-02-01T17:13:20;6.30;99.90
3996;DHT22;2012;49.794;9.722;2023-02-01T17:15:56;6.30;99.90
3996;DHT22;2012;49.794;9.722;2023-02-01T17:18:24;6.30;99.90
3996;DHT22;2012;49.794;9.722;2023-02-01T17:21:01;6.20;99.90
3996;DHT22;2012;49.794;9.722;2023-02-01T17:23:29;6.20;99.90
3996;DHT22;2012;49.794;9.722;2023-02-01T17:25:57;6.20;99.90
3996;DHT22;2012;49.794;9.722;2023-02-01T17:28:24;6.20;99.90
3996;DHT22;2012;49.794;9.722;2023-02-01T17:30:50;6.20;99.90
3996;DHT22;2012;49.794;9.722;2023-02-01T17:33:26;6.20;99.90
3996;DHT22;2012;49.794;9.722;2023-02-01T17:36:03;6.20;99.90
3996;DHT22;2012;49.794;9.722;2023-02-01T17:38:32;6.20;99.90
3996;DHT22;2012;49.794;9.722;2023-02-01T17:41:00;6.20;99.90
3996;DHT22;2012;49.794;9.722;2023-02-01T17:43:26;6.20;99.90
3996;DHT22;2012;49.794;9.722;2023-02-01T17:46:17;6.20;99.90
3996;DHT22;2012;49.794;9.722;2023-02-01T17:48:44;6.30;99.90
3996;DHT22;2012;49.794;9.722;2023-02-01T17:51:19;6.30;99.90
3996;DHT22;2012;49.794;9.722;2023-02-01T17:53:47;6.30;99.90
3996;DHT22;2012;49.794;9.722;2023-02-01T17:56:16;6.30;99.90
3996;DHT22;2012;49.794;9.722;2023-02-01T17:58:44;6.30;99.90
3996;DHT22;2012;49.794;9.722;2023-02-01T18:01:20;6.30;99.90
3996;DHT22;2012;49.794;9.722;2023-02-01T18:03:47;6.30;99.90
3996;DHT22;2012;49.794;9.722;2023-02-01T18:06:17;6.40;99.90
3996;DHT22;2012;49.794;9.722;2023-02-01T18:08:45;6.40;99.90
3996;DHT22;2012;49.794;9.722;2023-02-01T18:11:17;6.50;99.90
3996;DHT22;2012;49.794;9.722;2023-02-01T18:13:45;6.40;99.90
3996;DHT22;2012;49.794;9.722;2023-02-01T18:16:21;6.40;99.90
3996;DHT22;2012;49.794;9.722;2023-02-01T18:18:49;6.40;99.90
3996;DHT22;2012;49.794;9.722;2023-02-01T18:21:18;6.40;99.90
3996;DHT22;2012;49.794;9.722;2023-02-01T18:23:46;6.40;99.90
3996;DHT22;2012;49.794;9.722;2023-02-01T18:26:14;6.40;99.90
3996;DHT22;2012;49.794;9.722;2023-02-01T18:28:42;6.50;99.90
3996;DHT22;2012;49.794;9.722;2023-02-01T18:31:23;6.50;99.90
3996;DHT22;2012;49.794;9.722;2023-02-01T18:33:52;6.50;99.90
3996;DHT22;2012;49.794;9.722;2023-02-01T18:36:19;6.50;99.90
3996;DHT22;2012;49.794;9.722;2023-02-01T18:38:46;6.40;99.90
3996;DHT22;2012;49.794;9.722;2023-02-01T18:41:16;6.40;99.90
3996;DHT22;2012;49.794;9.722;2023-02-01T18:43:47;6.50;99.90